»·PEaware :: N927CF KEUG-KMFR

N927CF :: KEUG-KMFR

FLIGHT INFORMATION

Flight Status: Arrived
Operator: Privately registered:
United States
More flights under this callsign
Pilot: Joseph J. (19398)
Aircraft: BEECH AIRCRAFT DEBONAIR BONANZA
(BE33)
More flights by this aircraft type
Origin: KEUG Mahlon Sweet
United States
Destination: KMFR Rogue Valley Intl-Medford
United States
More flights between these airports :: More routes between these airports
Route: +EUG1 EUG V448 SAMIE
File this flight plan on PilotEdge
Remarks:
Altitude:
(Current/Filed)
9,000ft
Speed:
(Current/Filed)
150kts
Departed: 28-Dec-18 09:54 AM
Arrived: 28-Dec-18 10:41 AM
Distance/Time
Traveled:
106nm/0:46
Distance/Time
To Go:
Arrived

Flight Plot

Page will automatically refresh every two minutes.

Flight plan parsing failed; only flown route is shown


Map Options




Map Legend


Flown Route
Filed Route
Departure Airport
Arrival Airport
Navaid (VOR, NDB)
Fix

Horizontal Profiles

Position Reports

Time Latitude Longitude Heading Altitude Ground
Speed
28-Dec-18 09:36 44.121833 -123.212142 211 364ft 0kts
28-Dec-18 09:37 44.121833 -123.212142 211 364ft 0kts
28-Dec-18 09:38 44.121833 -123.212142 211 364ft 0kts
28-Dec-18 09:39 44.121833 -123.212142 211 364ft 0kts
28-Dec-18 09:40 44.121833 -123.212142 211 364ft 0kts
28-Dec-18 09:41 44.121833 -123.212142 211 364ft 0kts
28-Dec-18 09:42 44.121833 -123.212142 211 364ft 0kts
28-Dec-18 09:43 44.121833 -123.212142 211 364ft 0kts
28-Dec-18 09:44 44.121833 -123.212142 211 364ft 0kts
28-Dec-18 09:45 44.121833 -123.212142 211 364ft 0kts
28-Dec-18 09:46 44.121516 -123.213237 226 365ft 5kts
28-Dec-18 09:47 44.123575 -123.216318 327 364ft 9kts
28-Dec-18 09:48 44.125698 -123.217179 4 361ft 15kts
28-Dec-18 09:49 44.130497 -123.217165 359 358ft 13kts
28-Dec-18 09:50 44.133818 -123.217213 357 354ft 5kts
28-Dec-18 09:51 44.135301 -123.217671 271 354ft 0kts
28-Dec-18 09:52 44.135323 -123.218148 268 355ft 9kts
28-Dec-18 09:53 44.125161 -123.219255 177 631ft 73kts
28-Dec-18 09:54 44.104317 -123.218734 177 1635ft 78kts
28-Dec-18 09:55 44.082620 -123.218202 178 2632ft 78kts
28-Dec-18 09:56 44.061798 -123.216916 177 3616ft 73kts
28-Dec-18 09:57 44.041256 -123.214221 178 4485ft 78kts
28-Dec-18 09:58 44.019719 -123.218699 196 5273ft 79kts
28-Dec-18 09:59 43.998603 -123.224625 199 6052ft 76kts
28-Dec-18 10:00 43.978445 -123.230407 203 6788ft 75kts
28-Dec-18 10:01 43.955428 -123.237532 203 7409ft 90kts
28-Dec-18 10:02 43.930094 -123.245169 205 8107ft 96kts
28-Dec-18 10:03 43.902134 -123.253765 205 8669ft 112kts
28-Dec-18 10:04 43.870008 -123.263599 203 9005ft 134kts
28-Dec-18 10:05 43.829642 -123.272748 188 8970ft 160kts
28-Dec-18 10:06 43.783763 -123.280323 181 9000ft 172kts
28-Dec-18 10:07 43.735362 -123.287883 184 8999ft 177kts
28-Dec-18 10:08 43.686268 -123.296064 187 8998ft 177kts
28-Dec-18 10:09 43.637852 -123.304259 188 8999ft 175kts
28-Dec-18 10:10 43.589365 -123.312437 188 8999ft 175kts
28-Dec-18 10:11 43.541106 -123.320536 189 8999ft 175kts
28-Dec-18 10:12 43.493005 -123.328598 189 8999ft 174kts
28-Dec-18 10:13 43.444506 -123.333354 184 9000ft 175kts
28-Dec-18 10:14 43.395837 -123.336820 184 9000ft 175kts
28-Dec-18 10:15 43.347281 -123.340316 184 9000ft 175kts
28-Dec-18 10:16 43.298596 -123.343815 184 9001ft 175kts
28-Dec-18 10:17 43.249957 -123.347306 184 9001ft 175kts
28-Dec-18 10:18 43.201147 -123.350805 184 9001ft 175kts
28-Dec-18 10:19 43.154695 -123.334836 152 9002ft 175kts
28-Dec-18 10:20 43.110501 -123.306738 152 9002ft 175kts
28-Dec-18 10:21 43.066147 -123.278711 152 8976ft 177kts
28-Dec-18 10:22 43.021568 -123.250643 152 8975ft 176kts
28-Dec-18 10:23 42.977151 -123.222760 151 8975ft 176kts
28-Dec-18 10:24 42.932744 -123.194889 151 8976ft 176kts
28-Dec-18 10:25 42.889217 -123.167610 150 8970ft 176kts
28-Dec-18 10:26 42.845157 -123.140136 149 8997ft 172kts
28-Dec-18 10:27 42.801855 -123.113094 147 8998ft 170kts
28-Dec-18 10:28 42.759570 -123.086665 146 8998ft 165kts
28-Dec-18 10:29 42.718382 -123.060924 146 8836ft 169kts
28-Dec-18 10:30 42.674842 -123.033844 147 8005ft 169kts
28-Dec-18 10:31 42.632622 -123.008828 152 7199ft 163kts
28-Dec-18 10:32 42.590930 -122.986712 153 6376ft 161kts
28-Dec-18 10:33 42.549193 -122.964776 155 5242ft 160kts
28-Dec-18 10:34 42.508637 -122.943396 156 4035ft 153kts
28-Dec-18 10:35 42.470982 -122.923656 157 3116ft 127kts
28-Dec-18 10:36 42.447350 -122.911131 156 2607ft 81kts
28-Dec-18 10:37 42.425924 -122.899943 157 2180ft 82kts
28-Dec-18 10:38 42.404503 -122.888744 157 1729ft 82kts
28-Dec-18 10:39 42.383375 -122.877665 158 1310ft 75kts
28-Dec-18 10:40 42.375673 -122.875269 187 1308ft 12kts
28-Dec-18 10:41 42.371837 -122.875689 261 1311ft 9kts

Navigation Log

Ident Type
Flight plan parsing failed, navigation log unavailable